SBMO/MCZ METAR and TAF weather

Enter ICAO airport designator
Station Type Date Time Source
SBMO METAR 2022/11/30 16:00 UTC NOAA

SBMO 301600Z 05009KT 9999 BKN019 BKN100 29/23 Q1008


Station Type Date Time Source
SBMO Decoded METAR 2022/11/30 16:00 UTC NOAA

Maceio Aeroporto , Brazil (SBMO) 09-31S 035-47W 115M
Nov 30, 2022 - 11:00 AM EST / 2022.11.30 1600 UTC
Wind: from the NE (050 degrees) at 10 MPH (9 KT):0
Visibility: greater than 7 mile(s):0
Sky conditions: mostly cloudy
Temperature: 84 F (29 C)
Dew Point: 73 F (23 C)
Relative Humidity: 70%
Pressure (altimeter): 29.77 in. Hg (1008 hPa)
ob: SBMO 301600Z 05009KT 9999 BKN019 BKN100 29/23 Q1008
cycle: 16

Station Type Date Time Source
SBMO TAF 2022/11/30 18:29 UTC NOAA

TAF SBMO 301500Z 3018/0118 08010KT 7000 SCT025 TN22/0108Z TX28/0117Z
BECMG 0100/0102 35005KT 4000 RA SCT017
BECMG 0104/0106 32005KT 9999 NSW
BECMG 0109/0111 04007KT FEW020
BECMG 0114/0116 08010KT SCT025
TEMPO 0116/0118 4000 SHRA BKN012 FEW025TCU
RMK PGY

Example: see airport list